Pasadena, TX (77504)

8:30 AM CST on February 01, 2015 (GMT -0600)
Fairmont Townhomes | Change Station
CLOSE
Current Station
Personal Weather Station
Location: Pasadena, TX
Elevation: 46 ft
Nearby Weather Stations

Elev 46 ft 29.65 °N, 95.19 °W | Updated 12 minutes ago

Mostly Cloudy
Mostly Cloudy
61.9 °F
Feels Like 61.9 °F
N
3.2
Wind Variable Wind from South

Today
High -- | Low -- °F
--% Chance of Precip.
Yesterday
High -- | Low -- °F
Precip. -- in
7:10 AM 5:58 PM
Waxing Gibbous, 95% visible
Pressure 29.96 in
Visibility 4.0 miles
Clouds Mostly Cloudy 3000 ft
Mostly Cloudy 8000 ft
Mostly Cloudy 25000 ft
Dew Point 62 °F
Humidity 99%
Rainfall 0.00 in
Snow Depth Not available.
UV 0 out of 12
Pollen 8.30 out of 12
Air Quality Not available.
Flu Activity Not available.
METAR KEFD 011350Z 16002KT 4SM MIFG BR BKN030 BKN080 BKN250 16/16 A2996

More Conditions Fewer Conditions

Pressure 29.96 in
Visibility 4.0 miles
Clouds Mostly Cloudy 3000 ft
Mostly Cloudy 8000 ft
Mostly Cloudy 25000 ft
Dew Point 62 °F
Humidity 99%
Rainfall 0.00 in
Snow Depth Not available.
UV 0 out of 12
Pollen 8.30 out of 12
Air Quality Not available.
Flu Activity Not available.
METAR KEFD 011350Z 16002KT 4SM MIFG BR BKN030 BKN080 BKN250 16/16 A2996

More Conditions Fewer Conditions

Nowcast | as of 6:28 am CST on February 1, 2015

Patchy dense fog should burn off by mid morning. In the meantime...be prepared for rapid changes in visibility if driving. Use low beam headlights and allow plenty of distance between vehicles.

×

10-Day Weather Forecast

Almanac

Astronomy

Feb. 01, 2015 Rise Set
Actual Time
Civil Twilight
Nautical Twilight
Astronomical Twilight
Moon
Length of Visible Light
Length of Day
Tomorrow will be .
, % of the Moon is Illuminated

Today's Extremes

State Highs State Lows

Community

WunderPhotos

Upload Photos

1,792,362 photos uploaded!

WunderBlogs® & News

Nearby

Air Quality

  Air Quality AQ Index Pollutant
Not available.

Snow Depth

Station Depth Elevation

Earthquake Activity

City Distance Mag. Time & Date
Minimum magnitude displayed is 2.5.

Coastal Water Temperatures

Place Temperature

Nearby Weather Stations